createdAt,value
2019-01-21T00:02:33.567Z,-0.09
2019-01-21T00:07:39.584Z,-0.06
2019-01-21T00:12:45.737Z,-0.09
2019-01-21T00:17:51.714Z,-0.09
2019-01-21T00:22:57.494Z,-0.08
2019-01-21T00:28:03.557Z,0.00
2019-01-21T00:33:09.315Z,0.12
2019-01-21T00:38:15.233Z,0.20
2019-01-21T00:43:21.070Z,0.19
2019-01-21T00:48:27.467Z,0.31
2019-01-21T00:53:33.522Z,0.33
2019-01-21T00:58:39.494Z,0.32
2019-01-21T01:03:45.713Z,0.41
2019-01-21T01:08:51.949Z,0.54
2019-01-21T01:13:58.030Z,0.49
2019-01-21T01:19:04.030Z,0.59
2019-01-21T01:24:09.969Z,0.64
2019-01-21T01:29:15.949Z,0.59
2019-01-21T01:34:21.698Z,0.61
2019-01-21T01:39:27.585Z,0.42
2019-01-21T01:44:33.676Z,0.39
2019-01-21T01:49:39.640Z,0.30
2019-01-21T01:54:45.932Z,0.30
2019-01-21T01:59:52.092Z,0.29
2019-01-21T02:04:57.772Z,0.21
2019-01-21T02:10:04.782Z,0.20
2019-01-21T02:15:12.469Z,0.14
2019-01-21T02:20:19.266Z,0.10
2019-01-21T02:25:43.354Z,0.07
2019-01-21T02:31:01.415Z,0.11
2019-01-21T02:36:18.961Z,0.21
2019-01-21T02:41:29.466Z,0.08
2019-01-21T02:46:45.123Z,0.10
2019-01-21T02:52:09.132Z,0.30
2019-01-21T02:57:18.703Z,0.34
2019-01-21T03:02:35.860Z,0.29
2019-01-21T03:08:00.159Z,0.38
2019-01-21T03:13:25.969Z,0.40
2019-01-21T03:18:50.111Z,0.48
2019-01-21T03:24:14.220Z,0.41
2019-01-21T03:29:32.074Z,0.48
2019-01-21T03:34:53.113Z,0.48
2019-01-21T03:40:08.130Z,0.54
2019-01-21T03:45:32.248Z,0.59
2019-01-21T03:50:57.451Z,0.52
2019-01-21T03:56:06.012Z,0.64
2019-01-21T04:01:24.044Z,0.65
2019-01-21T04:06:36.163Z,0.69
2019-01-21T04:11:47.873Z,0.71
2019-01-21T04:17:03.671Z,0.81
2019-01-21T04:22:14.719Z,0.77
2019-01-21T04:27:27.337Z,0.84
2019-01-21T04:32:48.341Z,0.91
2019-01-21T04:38:03.225Z,0.99
2019-01-21T04:43:12.289Z,0.91
2019-01-21T04:48:37.368Z,0.96
2019-01-21T04:54:02.794Z,0.95
2019-01-21T04:59:15.213Z,1.00
2019-01-21T05:04:24.468Z,1.05
2019-01-21T05:10:11.919Z,1.02
2019-01-21T05:15:56.084Z,1.09
2019-01-21T05:21:20.275Z,1.08
2019-01-21T05:27:02.734Z,1.07
2019-01-21T05:32:21.098Z,1.11
2019-01-21T05:37:43.640Z,1.06
2019-01-21T05:43:03.677Z,1.02
2019-01-21T05:48:24.601Z,1.05
2019-01-21T05:53:45.838Z,1.01
2019-01-21T05:58:55.048Z,1.01
2019-01-21T06:04:29.568Z,1.05
2019-01-21T06:09:41.707Z,1.02
2019-01-21T06:15:22.513Z,1.00
2019-01-21T06:20:42.657Z,0.90
2019-01-21T06:26:30.477Z,0.79
2019-01-21T06:31:44.971Z,0.73
2019-01-21T06:37:18.244Z,0.76
2019-01-21T06:42:30.051Z,0.82
2019-01-21T06:47:57.096Z,0.88
2019-01-21T06:53:18.243Z,0.96
2019-01-21T06:58:30.253Z,0.99
2019-01-21T07:03:56.104Z,0.99
2019-01-21T07:09:14.648Z,0.98
2019-01-21T07:14:44.225Z,1.05
2019-01-21T07:20:02.158Z,0.94
2019-01-21T07:25:20.610Z,0.82
2019-01-21T07:30:59.986Z,0.77
2019-01-21T07:36:33.789Z,0.78
2019-01-21T07:41:52.098Z,0.71
2019-01-21T07:47:15.250Z,0.66
2019-01-21T07:53:04.128Z,0.60
2019-01-21T07:58:31.708Z,0.50
2019-01-21T08:04:00.424Z,0.51
2019-01-21T08:09:15.305Z,0.52
2019-01-21T08:14:40.798Z,0.63
2019-01-21T08:20:03.801Z,0.65
2019-01-21T08:25:23.798Z,0.64
2019-01-21T08:30:41.982Z,0.73
2019-01-21T08:36:10.648Z,0.77
2019-01-21T08:41:28.510Z,1.00
2019-01-21T08:46:52.814Z,1.08
2019-01-21T08:52:13.792Z,1.10
2019-01-21T08:57:41.407Z,1.03
2019-01-21T09:02:54.926Z,1.10
2019-01-21T09:08:25.676Z,1.02
2019-01-21T09:13:38.099Z,1.08
2019-01-21T09:18:53.245Z,1.19
2019-01-21T09:24:34.528Z,1.21
2019-01-21T09:30:06.064Z,1.06
2019-01-21T09:35:36.579Z,1.28
2019-01-21T09:41:18.868Z,1.35
2019-01-21T09:46:28.021Z,1.57
2019-01-21T09:51:33.863Z,1.69
2019-01-21T09:56:41.455Z,1.68
2019-01-21T10:01:47.604Z,1.47
2019-01-21T10:06:56.643Z,1.42
2019-01-21T10:12:28.101Z,1.39
2019-01-21T10:17:52.192Z,1.46
2019-01-21T10:23:17.593Z,1.50
2019-01-21T10:28:35.461Z,1.76
2019-01-21T10:33:59.467Z,1.86
2019-01-21T10:39:37.825Z,1.81
2019-01-21T10:44:53.272Z,1.80
2019-01-21T10:50:14.309Z,1.60
2019-01-21T10:55:44.448Z,1.32
2019-01-21T11:01:08.967Z,1.35
2019-01-21T11:06:32.169Z,1.49
2019-01-21T11:11:57.881Z,1.44
2019-01-21T11:17:29.576Z,1.24
2019-01-21T11:22:49.372Z,1.43
2019-01-21T11:28:01.553Z,1.32
2019-01-21T11:33:34.030Z,1.36
2019-01-21T11:38:50.854Z,1.54
2019-01-21T11:44:24.480Z,1.35
2019-01-21T11:49:42.879Z,1.40
2019-01-21T11:54:57.826Z,1.35
2019-01-21T12:00:16.015Z,1.46
2019-01-21T12:05:34.694Z,1.54
2019-01-21T12:11:06.523Z,1.63
2019-01-21T12:16:44.495Z,1.62
2019-01-21T12:22:27.027Z,1.73
2019-01-21T12:27:44.986Z,1.89
2019-01-21T12:33:09.262Z,1.87
2019-01-21T12:38:41.684Z,1.85
2019-01-21T12:44:02.928Z,1.90
2019-01-21T12:49:23.744Z,1.70
2019-01-21T12:54:40.728Z,1.68
2019-01-21T12:59:55.869Z,1.69
2019-01-21T13:05:07.769Z,1.67
2019-01-21T13:10:29.009Z,1.64
2019-01-21T13:15:59.145Z,1.40
2019-01-21T13:21:43.334Z,1.35
2019-01-21T13:27:07.616Z,1.38
2019-01-21T13:32:22.408Z,1.27
2019-01-21T13:37:46.893Z,1.32
2019-01-21T13:43:02.858Z,1.22
2019-01-21T13:48:17.023Z,1.09
2019-01-21T13:53:38.391Z,1.02
2019-01-21T13:59:13.346Z,0.93
2019-01-21T14:04:40.828Z,0.86
2019-01-21T14:09:58.731Z,0.94
2019-01-21T14:15:27.461Z,0.94
2019-01-21T14:20:45.610Z,0.86
2019-01-21T14:26:08.341Z,0.83
2019-01-21T14:31:19.643Z,0.72
2019-01-21T14:36:32.666Z,0.64
2019-01-21T14:42:18.431Z,0.53
2019-01-21T14:47:52.887Z,0.30
2019-01-21T14:53:19.872Z,0.20
2019-01-21T14:58:45.319Z,0.09
2019-01-21T15:04:16.569Z,0.15
2019-01-21T15:09:44.973Z,0.05
2019-01-21T15:15:12.143Z,0.02
2019-01-21T15:20:21.223Z,-0.04
2019-01-21T15:25:30.271Z,-0.18
2019-01-21T15:30:45.174Z,-0.28
2019-01-21T15:36:11.262Z,-0.22
2019-01-21T15:41:29.530Z,-0.37
2019-01-21T15:46:53.500Z,-0.40
2019-01-21T15:52:11.407Z,-0.35
2019-01-21T15:57:21.643Z,-0.40
2019-01-21T16:02:36.454Z,-0.43
2019-01-21T16:07:47.341Z,-0.49
2019-01-21T16:13:05.209Z,-0.55
2019-01-21T16:18:17.191Z,-0.47
2019-01-21T16:23:41.041Z,-0.60
2019-01-21T16:28:53.151Z,-0.62
2019-01-21T16:34:12.303Z,-0.75
2019-01-21T16:39:27.427Z,-0.74
2019-01-21T16:44:33.309Z,-0.78
2019-01-21T16:49:39.286Z,-0.77
2019-01-21T16:54:45.484Z,-0.90
2019-01-21T16:59:51.515Z,-0.98
2019-01-21T17:04:57.548Z,-1.14
2019-01-21T17:10:03.828Z,-1.14
2019-01-21T17:15:11.983Z,-1.18
2019-01-21T17:20:21.341Z,-1.35
2019-01-21T17:25:27.047Z,-1.41
2019-01-21T17:30:32.908Z,-1.45
2019-01-21T17:35:39.013Z,-1.50
2019-01-21T17:40:45.286Z,-1.57
2019-01-21T17:45:51.260Z,-1.58
2019-01-21T17:50:57.554Z,-1.70
2019-01-21T17:56:03.701Z,-1.68
2019-01-21T18:01:09.671Z,-1.74
2019-01-21T18:06:15.876Z,-1.85
2019-01-21T18:11:22.319Z,-1.85
2019-01-21T18:16:28.384Z,-1.83
2019-01-21T18:21:39.942Z,-1.88
2019-01-21T18:26:41.994Z,-1.95
2019-01-21T18:31:47.863Z,-2.04
2019-01-21T18:36:53.913Z,-2.06
2019-01-21T18:42:00.156Z,-2.10
2019-01-21T18:47:06.262Z,-2.18
2019-01-21T18:52:12.269Z,-2.16
2019-01-21T18:57:18.346Z,-2.10
2019-01-21T19:02:24.225Z,-2.15
2019-01-21T19:07:30.080Z,-2.18
2019-01-21T19:12:36.377Z,-2.17
2019-01-21T19:17:42.366Z,-2.15
2019-01-21T19:22:48.337Z,-2.14
2019-01-21T19:27:54.273Z,-2.07
2019-01-21T19:33:00.505Z,-2.16
2019-01-21T19:38:06.560Z,-2.11
2019-01-21T19:43:12.949Z,-1.97
2019-01-21T19:48:19.105Z,-2.05
2019-01-21T19:53:26.051Z,-1.97
2019-01-21T19:58:32.065Z,-1.99
2019-01-21T20:03:38.137Z,-2.01
2019-01-21T20:08:44.210Z,-1.87
2019-01-21T20:13:51.648Z,-1.84
2019-01-21T20:18:57.782Z,-1.68
2019-01-21T20:24:05.825Z,-1.54
2019-01-21T20:29:11.803Z,-1.49
2019-01-21T20:34:17.774Z,-1.46
2019-01-21T20:39:23.671Z,-1.34
2019-01-21T20:44:29.714Z,-1.29
2019-01-21T20:49:35.503Z,-1.45
2019-01-21T20:54:41.445Z,-1.38
2019-01-21T20:59:47.424Z,-1.42
2019-01-21T21:04:53.530Z,-1.35
2019-01-21T21:09:59.495Z,-1.28
2019-01-21T21:15:22.229Z,-1.21
2019-01-21T21:20:28.321Z,-1.21
2019-01-21T21:25:34.456Z,-1.17
2019-01-21T21:30:40.344Z,-1.01
2019-01-21T21:35:46.960Z,-0.93
2019-01-21T21:40:54.008Z,-0.82
2019-01-21T21:46:01.863Z,-0.72
2019-01-21T21:51:08.276Z,-0.72
2019-01-21T21:56:14.552Z,-0.78
2019-01-21T22:01:24.075Z,-0.72
2019-01-21T22:06:28.077Z,-0.70
2019-01-21T22:11:34.066Z,-0.88
2019-01-21T22:16:40.115Z,-0.78
2019-01-21T22:21:46.141Z,-0.74
2019-01-21T22:26:51.926Z,-0.63
2019-01-21T22:31:57.687Z,-0.67
2019-01-21T22:37:03.619Z,-0.62
2019-01-21T22:42:09.539Z,-0.73
2019-01-21T22:47:15.389Z,-0.67
2019-01-21T22:52:21.292Z,-0.69
2019-01-21T22:57:27.570Z,-0.64
2019-01-21T23:02:34.161Z,-0.86
2019-01-21T23:07:40.225Z,-0.91
2019-01-21T23:12:46.189Z,-0.96
2019-01-21T23:17:52.078Z,-0.89
2019-01-21T23:22:58.014Z,-0.96
2019-01-21T23:28:05.331Z,-0.81
2019-01-21T23:33:11.188Z,-0.78
2019-01-21T23:38:17.184Z,-1.02
2019-01-21T23:43:23.102Z,-0.78
2019-01-21T23:48:29.653Z,-1.00
2019-01-21T23:53:35.830Z,-1.15
2019-01-21T23:58:42.093Z,-1.10
